WEATHER DATA

YESTERDAY
Time Temp. Dewp. Hum. Wind dir Wind speed Wind gust Bar. 1h Prec. 24h Prec.
00:06 1.6 0.1 90 198 0.6 1.9 1019.5 0.0000 0.0000
00:21 1.7 0.2 90 220 0.8 1.9 1019.5 0.0000 0.0000
00:31 1.7 0.1 89 223 0.8 1.9 1019.5 0.0000 0.0000
00:41 1.8 0.2 89 217 0.8 1.7 1019.5 0.0000 0.0000
00:52 1.8 0.2 89 209 0.6 1.4 1019.6 0.0000 0.0000
01:06 1.8 0.2 89 225 0.6 1.7 1019.8 0.0000 0.0000
01:16 1.8 0.2 89 231 0.6 1.4 1019.8 0.0000 0.0000
01:27 1.8 0.2 89 239 0.8 2.2 1020.1 0.0000 0.0000
01:41 1.8 0.2 89 233 0.8 1.7 1020.1 0.0000 0.0000
01:52 1.7 0.1 89 236 0.6 1.4 1020.1 0.0000 0.0000
02:02 1.5 -0.1 89 240 0.6 1.4 1020.1 0.0000 0.0000
02:12 1.4 -0.2 89 234 0.8 1.9 1020 0.0000 0.0000
02:23 1.2 -0.2 90 234 0.8 1.9 1020.1 0.0000 0.0000
02:33 1.1 -0.3 90 230 0.6 1.4 1020.1 0.0000 0.0000
02:43 0.9 -0.4 91 237 0.3 1.1 1020 0.0000 0.0000
02:53 0.8 -0.4 91 209 0.3 1.1 1020 0.0000 0.0000
03:04 0.7 -0.4 92 270 0.3 0.8 1020.1 0.0000 0.0000
03:13 0.6 -0.5 92 270 0.3 1.1 1020.1 0.0000 0.0000
03:24 0.5 -0.6 92 255 0.6 1.4 1020.2 0.0000 0.0000
03:34 0.4 -0.5 93 230 0.3 1.4 1020.3 0.0000 0.0000
03:44 0.3 -0.6 93 270 0.3 0.8 1020.4 0.0000 0.0000
03:54 0.2 -0.6 94 213 0.3 1.4 1020.4 0.0000 0.0000
04:05 0.2 -0.6 94 237 0.3 0.8 1020.4 0.0000 0.0000
04:15 0.2 -0.4 95 196 0.3 1.1 1020.5 0.0000 0.0000
04:24 0.3 -0.4 95 201 0.3 0.8 1020.8 0.0000 0.0000
04:41 0.5 -0.1 96 145 0.3 0.8 1020.8 0.0000 0.0000
04:56 0.6 0 96 204 0.3 0.8 1020.9 0.0000 0.0000
05:12 0.6 0 96 198 0.3 0.8 1021.2 0.0000 0.0000
05:22 0.7 0.1 96 240 0.3 0.8 1021.3 0.0000 0.0000
05:32 0.8 0.2 96 225 0.3 1.1 1021.4 0.0000 0.0000
05:42 0.8 0.2 96 198 0.3 1.1 1021.5 0.0000 0.0000
05:52 0.8 0.2 96 270 0.3 1.1 1021.5 0.0000 0.0000
06:03 0.8 0.4 97 230 0.3 0.8 1021.7 0.0000 0.0000
06:08 0.8 0.4 97 255 0.6 0.8 1021.9 0.0000 0.0000
06:23 0.7 0.1 96 246 0.6 0.8 1021.9 0.0000 0.0000
06:33 0.6 0 96 270 0.6 1.1 1022 0.0000 0.0000
06:43 0.5 0.1 97 244 0.8 1.1 1022.1 0.0000 0.0000
06:53 0.5 0.1 97 235 0.8 1.4 1022.2 0.0000 0.0000
07:04 0.5 0.1 97 270 0.6 1.1 1022.4 0.0000 0.0000
07:14 0.4 0 97 251 0.8 1.1 1022.6 0.0000 0.0000
07:24 0.4 0 97 254 0.8 1.4 1022.8 0.0000 0.0000
07:35 0.3 -0.1 97 246 0.6 1.1 1022.9 0.0000 0.0000
07:55 0.3 0 98 245 1.1 1.4 1023.3 0.0000 0.0000
08:06 0.5 0.4 99 251 0.8 1.4 1023.4 0.0000 0.0000
08:16 0.7 0.6 99 249 0.8 1.1 1023.6 0.0000 0.0000
08:26 0.9 0.8 99 231 0.8 1.4 1023.7 0.0000 0.0000
08:36 1.1 1 99 233 0.6 1.1 1023.9 0.0000 0.0000
08:46 1.5 1.4 99 228 0.8 1.4 1024 0.0000 0.0000
08:57 1.8 1.7 99 226 0.8 1.4 1023.9 0.0000 0.0000
09:06 2.2 2.1 99 238 0.8 1.4 1024.3 0.0000 0.0000
09:16 2.6 2.3 98 244 0.6 1.1 1024.5 0.0000 0.0000
09:27 2.9 2.5 97 254 0.6 1.1 1024.7 0.0000 0.0000
09:37 3.2 2.8 97 248 0.8 1.9 1024.9 0.0000 0.0000
09:47 3.6 3 96 246 0.8 1.7 1025 0.0000 0.0000
09:57 3.9 3.2 95 241 0.8 1.7 1025.1 0.0000 0.0000
10:08 4.2 3.3 94 250 1.1 1.7 1025.1 0.0000 0.0000
10:17 4.4 3.4 93 255 0.6 1.4 1025.2 0.0000 0.0000
10:28 4.6 3.4 92 270 0.6 1.7 1025.3 0.0000 0.0000
10:39 4.8 3.6 92 242 0.8 1.4 1025.4 0.0000 0.0000
10:50 5 3.7 91 237 0.8 1.4 1025.5 0.0000 0.0000
11:04 5.3 3.8 90 243 0.6 1.7 1025.5 0.0000 0.0000
11:14 5.4 3.7 89 244 0.8 1.9 1025.5 0.0000 0.0000
11:35 5.6 3.8 88 249 1.7 3.6 1025.6 0.0000 0.0000
11:45 5.7 3.9 88 238 1.9 3.6 1025.4 0.0000 0.0000
12:01 5.9 3.9 87 231 2.2 4.4 1025.6 0.0000 0.0000
12:10 6.2 4.2 87 252 1.7 3.3 1025.6 0.0000 0.0000
12:21 6.4 4.4 87 247 1.4 3.1 1025.7 0.0000 0.0000
12:31 6.6 4.4 86 242 1.4 2.5 1025.7 0.0000 0.0000
12:42 6.7 4.5 86 217 1.4 3.3 1025.7 0.0000 0.0000
12:52 6.9 4.6 85 238 1.7 2.5 1025.7 0.0000 0.0000
13:02 7 4.7 85 244 0.8 2.2 1025.6 0.0000 0.0000
13:11 7.3 4.9 85 226 0.8 1.4 1025.7 0.0000 0.0000
13:37 7.3 4.8 84 247 1.1 1.9 1025.9 0.0000 0.0000
13:48 7.3 4.8 84 270 0.6 1.7 1026 0.0000 0.0000
13:59 7.2 4.7 84 260 0.8 1.9 1026.2 0.0000 0.0000
14:09 7.2 4.7 84 259 0.8 1.7 1026.2 0.0000 0.0000
14:19 7.2 4.7 84 248 0.8 2.2 1026.3 0.0000 0.0000
14:28 7.1 4.6 84 270 0.6 1.4 1026.4 0.0000 0.0000
14:39 7 4.5 84 270 0.8 1.4 1026.5 0.0000 0.0000
14:50 6.7 4.2 84 244 0.6 1.1 1026.6 0.0000 0.0000
14:59 6.5 4.2 85 245 0.6 1.1 1026.8 0.0000 0.0000
15:09 6.3 4 85 270 0.6 1.1 1027 0.0000 0.0000
15:20 6 3.8 86 270 0.3 0.8 1027 0.0000 0.0000
15:40 5.4 3.4 87 270 0.3 0.8 1027.1 0.0000 0.0000
15:50 5.1 3.1 87 270 0.3 0.8 1027.3 0.0000 0.0000
16:01 4.7 2.9 88 270 0.3 0.8 1027.4 0.0000 0.0000
16:10 4.4 2.6 88 270 0.3 1.1 1027.5 0.0000 0.0000
16:20 4 2.2 88 270 0.3 0.8 1027.5 0.0000 0.0000
16:31 3.5 1.9 89 270 0.3 0.8 1027.6 0.0000 0.0000
16:41 3.2 1.7 90 270 0.3 0.8 1027.6 0.0000 0.0000
16:49 2.9 1.4 90 270 0.3 0.8 1027.6 0.0000 0.0000
16:59 2.5 1.2 91 304 0.3 0.8 1027.9 0.0000 0.0000
17:09 2.2 1 92 302 0.3 0.8 1028 0.0000 0.0000
17:19 2 1 93 270 0.3 0.8 1028.2 0.0000 0.0000
17:30 1.9 1 94 270 0.3 0.8 1028.1 0.0000 0.0000
17:39 1.7 0.8 94 270 0.3 0.8 1028.2 0.0000 0.0000
17:49 1.4 0.5 94 270 0.3 0.8 1028.3 0.0000 0.0000
17:59 1.2 0.5 95 270 0.3 0.6 1028.4 0.0000 0.0000
18:10 1.1 0.4 95 270 0.3 0.8 1028.4 0.0000 0.0000
18:20 0.9 0.3 96 270 0.3 0.8 1028.5 0.0000 0.0000
18:30 0.7 0.1 96 270 0.3 0.8 1028.6 0.0000 0.0000
18:40 0.5 -0.1 96 270 0.3 0.6 1028.7 0.0000 0.0000
18:50 0.4 -0.1 96 270 0.3 0.6 1028.7 0.0000 0.0000
19:01 0.2 -0.2 97 270 0.3 1.1 1028.7 0.0000 0.0000
19:10 0.1 -0.3 97 270 0.3 0.8 1028.7 0.0000 0.0000
19:21 0 -0.4 97 239 0.3 0.8 1028.9 0.0000 0.0000
19:31 0 -0.2 98 212 0.3 0.8 1028.9 0.0000 0.0000
19:41 -0.1 -0.3 98 225 0.3 0.8 1028.9 0.0000 0.0000
19:51 -0.1 -0.3 98 225 0.3 0.6 1029 0.0000 0.0000
20:01 -0.2 -0.4 98 270 0.3 0.6 1029 0.0000 0.0000
20:11 -0.3 -0.5 98 270 0.3 0.6 1029.1 0.0000 0.0000
20:21 -0.3 -0.4 99 270 0.3 0.6 1029 0.0000 0.0000
20:32 -0.4 -0.5 99 315 0.3 0.6 1029 0.0000 0.0000
20:42 -0.5 -0.6 99 270 0.3 0.6 1029.1 0.0000 0.0000
20:52 -0.5 -0.6 99 270 0.3 0.6 1029.2 0.0000 0.0000
21:02 -0.5 -0.6 99 270 0.3 0.6 1029.3 0.0000 0.0000
21:12 -0.6 -0.7 99 270 0.3 0.6 1029.2 0.0000 0.0000
21:22 -0.6 -0.7 99 270 0.3 0.6 1029.3 0.0000 0.0000
21:32 -0.8 -0.9 99 217 0.3 0.6 1029.4 0.0000 0.0000
21:42 -0.8 -0.8 100 180 0.3 0.8 1029.4 0.0000 0.0000
21:53 -0.8 -0.8 100 270 0.3 0.6 1029.4 0.0000 0.0000
22:03 -0.9 -0.9 100 149 0.3 0.6 1029.4 0.0000 0.0000
22:13 -0.9 -0.9 100 270 0.3 0.6 1029.4 0.0000 0.0000
22:24 -1.1 -1.1 100 234 0.3 0.6 1029.4 0.0000 0.0000
22:34 -1.2 -1.2 100 45 0.3 0.6 1029.5 0.0000 0.0000
22:44 -1.3 -1.3 100 240 0.3 0.6 1029.4 0.0000 0.0000
22:50 -1.3 -1.3 100 270 0.3 0.6 1029.4 0.0000 0.0000
23:05 -1.4 -1.4 100 225 0.3 0.8 1029.6 0.0000 0.0000
23:15 -1.4 -1.4 100 270 0.3 0.6 1029.5 0.0000 0.0000
23:25 -1.4 -1.4 100 206 0.3 0.6 1029.4 0.0000 0.0000
23:35 -1.4 -1.4 100 240 0.3 0.8 1029.4 0.0000 0.0000
23:46 -1.5 -1.5 100 270 0.3 0.6 1029.4 0.0000 0.0000
23:56 -1.7 -1.7 100 315 0.3 0.8 1029.4 0.0000

DAY STATISTIC

2020-01-16
TEMPERATURE
AVERAGE
2.0
HIGH
7.3
13:11
LOW
-1.7
23:56
PRESSURE
AVERAGE
1025.2
HIGH
1029.6
23:05
LOW
1019.5
00:06
DEWPOINT
AVERAGE
1.0
HIGH
4.9
13:11
LOW
-1.7
23:56
HUMIDITY
AVERAGE
94
HIGH
100
21:42
LOW
84
13:37
WIND SPEED
AVERAGE
0.6
HIGH
2.2
12:01
WIND GUST
AVERAGE
1.2
HIGH
4.4
12:01
WIND DIRECTION
PREVAILING
W
45.1%
N
0.0
NE
0.8
E
0.0
SE
1.5
S
5.3
SW
44.4
W
45.1
NW
3.0
PRECIPITATION
RAIN HOUR
0.0
RAIN DAY
0.0
TEMPERATURE (°C)
LOW
-1.7
HIGH
7.3
AVERAGE
2.0
PRESSURE (hpa)
LOW
1019.5
HIGH
1029.6
AVERAGE
1025.2
DEVICE